Terminal Aerodrome Forecast
Issued by NWS

Home | Current Version | Previous Version | Text Only | Print | Product List | Glossary On
Versions: 1 2 3 4 5 6 7 8 9 10 11 12 13 14 15 16 17 18 19 20 21 22 23 24
268
FTUS43 KICT 282332
TAFRSL
TAF
KRSL 282332Z 2900/2924 05014KT P6SM VCTS OVC018CB
      TEMPO 2900/2904 4SM TSRA BKN009CB
     FM290400 05015G23KT 6SM -TSRA BKN012CB
      TEMPO 2904/2908 4SM TSRA OVC006CB
     FM290800 04015G23KT 5SM -TSRA OVC008CB
     FM291500 02020G30KT 5SM -SHRA OVC008=

USA.gov is the U.S. government's official web portal to all federal, state and local government web resources and services.